Time;durP1;ratioP1;P1;durP2;ratioP2;P2;SDS_P1;SDS_P2;PMS_P1;PMS_P2;Temp;Humidity;BMP_temperature;BMP_pressure;BME280_temperature;BME280_humidity;BME280_pressure;Samples;Min_cycle;Max_cycle;Signal;HPM_P1;HPM_P2
2023/02/06 00:00:38;;;;;;;36.70;5.45;;;5.60;99.90;;;;;;5098414;28;20038;-87
2023/02/06 00:03:04;;;;;;;36.75;5.15;;;5.60;99.90;;;;;;5098440;28;20523;-92
2023/02/06 00:05:30;;;;;;;34.60;4.63;;;5.60;99.90;;;;;;5098502;28;20032;-92
2023/02/06 00:07:56;;;;;;;27.80;4.93;;;5.60;99.90;;;;;;5081553;28;20081;-91
2023/02/06 00:10:22;;;;;;;35.80;5.43;;;5.50;99.90;;;;;;5081512;28;20027;-92
2023/02/06 00:12:48;;;;;;;42.63;5.22;;;5.50;99.90;;;;;;5081351;28;20392;-93
2023/02/06 00:15:14;;;;;;;29.88;4.70;;;5.50;99.90;;;;;;5098120;28;20023;-93
2023/02/06 00:17:39;;;;;;;36.45;4.80;;;5.50;99.90;;;;;;5064653;28;20028;-93
2023/02/06 00:20:07;;;;;;;32.60;5.20;;;5.40;99.90;;;;;;5081435;28;20073;-93
2023/02/06 00:22:34;;;;;;;26.15;4.25;;;5.40;99.90;;;;;;5080208;28;20032;-93
2023/02/06 00:24:59;;;;;;;40.63;5.13;;;5.40;99.90;;;;;;5098181;28;20016;-93
2023/02/06 00:27:25;;;;;;;34.10;5.10;;;5.40;99.90;;;;;;5081234;28;20089;-92
2023/02/06 00:29:51;;;;;;;33.47;4.93;;;5.40;99.90;;;;;;5097902;28;20030;-93
2023/02/06 00:32:17;;;;;;;32.72;4.63;;;5.20;99.90;;;;;;5097945;28;20053;-92
2023/02/06 00:34:43;;;;;;;33.85;4.75;;;5.20;99.90;;;;;;5097701;28;20595;-84
2023/02/06 00:37:09;;;;;;;30.85;4.93;;;5.20;99.90;;;;;;5079975;28;20024;-84
2023/02/06 00:39:35;;;;;;;25.00;4.38;;;5.20;99.90;;;;;;5079815;28;20369;-84
2023/02/06 00:42:00;;;;;;;38.25;4.47;;;5.20;99.90;;;;;;5079665;28;20050;-84
2023/02/06 00:44:27;;;;;;;35.08;4.35;;;5.20;99.90;;;;;;5096582;28;20176;-83
2023/02/06 00:46:53;;;;;;;34.08;5.80;;;5.20;99.90;;;;;;5115633;28;20068;-84
2023/02/06 00:49:19;;;;;;;29.08;4.38;;;5.20;99.90;;;;;;5114933;28;20028;-84
2023/02/06 00:51:44;;;;;;;43.60;6.10;;;5.20;99.90;;;;;;5079917;28;20024;-84
2023/02/06 00:54:10;;;;;;;38.97;5.32;;;5.20;99.90;;;;;;5097241;28;20385;-84
2023/02/06 00:56:36;;;;;;;33.03;5.72;;;5.20;99.90;;;;;;5096424;28;20480;-84
2023/02/06 00:59:01;;;;;;;30.65;5.90;;;5.20;99.90;;;;;;5096538;28;20027;-84
2023/02/06 01:01:27;;;;;;;29.27;4.95;;;5.10;99.90;;;;;;5114705;28;20023;-85
2023/02/06 01:03:53;;;;;;;34.03;5.30;;;5.20;99.90;;;;;;5063080;28;20042;-85
2023/02/06 01:06:19;;;;;;;25.63;4.47;;;5.10;99.90;;;;;;5079507;28;20544;-85
2023/02/06 01:08:45;;;;;;;28.38;4.35;;;5.10;99.90;;;;;;5096428;28;20379;-84
2023/02/06 01:11:17;;;;;;;35.83;6.00;;;5.10;99.90;;;;;;5079675;28;20027;-84
2023/02/06 01:13:43;;;;;;;24.73;4.25;;;5.10;99.90;;;;;;5096267;28;20028;-84
2023/02/06 01:16:11;;;;;;;22.98;3.80;;;5.10;99.90;;;;;;5114459;28;20034;-84
2023/02/06 01:18:37;;;;;;;32.60;5.68;;;5.00;99.90;;;;;;5096411;28;20544;-84
2023/02/06 01:21:08;;;;;;;35.00;4.65;;;5.00;99.90;;;;;;5096142;28;20111;-84
2023/02/06 01:23:33;;;;;;;;;;;5.00;99.90;;;;;;5079577;28;20027;-84
2023/02/06 01:26:03;;;;;;;24.38;4.32;;;4.90;99.90;;;;;;5096230;28;19929;-84
2023/02/06 01:28:28;;;;;;;36.65;4.60;;;4.90;99.90;;;;;;5114215;28;20016;-84
2023/02/06 01:30:54;;;;;;;25.23;4.22;;;4.90;99.90;;;;;;5079060;28;20061;-83
2023/02/06 01:33:20;;;;;;;35.83;5.88;;;4.80;99.90;;;;;;5079011;28;20027;-84
2023/02/06 01:35:53;;;;;;;23.45;4.13;;;4.80;99.90;;;;;;5095842;28;20027;-84
2023/02/06 01:38:18;;;;;;;27.85;4.00;;;4.90;99.90;;;;;;5080238;28;20032;-84
2023/02/06 01:40:44;;;;;;;27.60;4.38;;;4.80;99.90;;;;;;5114155;28;20042;-84
2023/02/06 01:43:17;;;;;;;38.90;6.18;;;4.80;99.90;;;;;;5114212;28;20411;-85
2023/02/06 01:45:46;;;;;;;38.50;5.28;;;4.80;99.90;;;;;;5095649;28;20027;-85
2023/02/06 01:48:19;;;;;;;35.80;4.95;;;4.80;99.90;;;;;;5096106;28;20054;-86
2023/02/06 01:50:49;;;;;;;31.83;4.38;;;4.80;99.90;;;;;;5095852;28;20016;-85
2023/02/06 01:53:17;;;;;;;31.27;4.72;;;4.70;99.90;;;;;;5096575;28;20047;-85
2023/02/06 01:55:45;;;;;;;26.05;5.05;;;4.70;99.90;;;;;;5096094;28;20346;-85
2023/02/06 01:58:16;;;;;;;39.30;5.72;;;4.80;99.90;;;;;;5095951;28;20468;-89
2023/02/06 02:00:41;;;;;;;;;;;4.80;99.90;;;;;;5097673;28;20048;-89
2023/02/06 02:03:07;;;;;;;35.15;4.15;;;4.80;99.90;;;;;;5096631;28;19953;-89
2023/02/06 02:05:34;;;;;;;27.05;4.53;;;4.80;99.90;;;;;;5062987;28;20102;-89
2023/02/06 02:08:16;;;;;;;30.00;5.55;;;4.80;99.90;;;;;;5096515;28;20024;-89
2023/02/06 02:10:42;;;;;;;34.47;4.20;;;4.80;99.90;;;;;;5096465;28;20027;-89
2023/02/06 02:13:08;;;;;;;24.60;3.63;;;4.80;99.90;;;;;;5063020;28;20073;-89
2023/02/06 02:15:57;;;;;;;35.58;4.25;;;4.80;99.90;;;;;;5079073;28;20122;-84
2023/02/06 02:18:50;;;;;;;26.15;4.30;;;4.80;99.90;;;;;;5095577;28;20016;-84
2023/02/06 02:21:44;;;;;;;38.00;5.95;;;4.80;99.90;;;;;;5113967;28;20024;-84
2023/02/06 02:24:30;;;;;;;31.13;4.57;;;4.80;99.90;;;;;;5095476;28;20027;-84
2023/02/06 02:27:30;;;;;;;30.67;5.40;;;4.80;99.90;;;;;;5114047;28;20051;-84
2023/02/06 02:30:20;;;;;;;28.27;3.63;;;4.90;99.90;;;;;;5095624;28;20085;-84
2023/02/06 02:33:13;;;;;;;24.23;4.25;;;4.80;99.90;;;;;;5095685;28;20023;-85
2023/02/06 02:35:50;;;;;;;26.83;4.47;;;4.80;99.90;;;;;;5096574;28;20024;-85
2023/02/06 02:38:27;;;;;;;23.73;3.70;;;4.90;99.90;;;;;;5095175;28;20087;-85
2023/02/06 02:41:03;;;;;;;30.98;5.35;;;4.80;99.90;;;;;;5095428;28;20066;-89
2023/02/06 02:43:56;;;;;;;34.72;4.35;;;4.90;99.90;;;;;;5096167;28;20043;-90
2023/02/06 02:46:30;;;;;;;36.90;4.88;;;4.90;99.90;;;;;;5099540;28;20119;-89
2023/02/06 02:49:02;;;;;;;29.13;5.03;;;4.90;99.90;;;;;;5100169;28;20015;-92
2023/02/06 02:51:28;;;;;;;20.67;4.20;;;4.90;99.90;;;;;;5100215;28;20024;-93
2023/02/06 02:53:56;;;;;;;30.58;4.10;;;4.90;99.90;;;;;;5083403;28;20023;-94
2023/02/06 02:56:24;;;;;;;29.75;4.78;;;4.90;99.90;;;;;;5100127;28;20024;-93
2023/02/06 02:58:53;;;;;;;30.00;3.85;;;4.90;99.90;;;;;;5099827;28;20038;-93
2023/02/06 03:01:25;;;;;;;31.05;4.30;;;4.90;99.90;;;;;;5099515;28;20486;-93
2023/02/06 03:03:54;;;;;;;22.05;3.47;;;4.90;99.90;;;;;;5099483;28;20062;-93
2023/02/06 03:06:25;;;;;;;27.58;3.75;;;4.90;99.90;;;;;;5099764;28;20051;-90
2023/02/06 03:09:33;;;;;;;25.98;4.80;;;4.90;99.90;;;;;;5117491;28;20028;-89
2023/02/06 03:12:10;;;;;;;22.15;3.67;;;4.90;99.90;;;;;;5099724;28;20020;-89
2023/02/06 03:15:01;;;;;;;30.20;4.07;;;4.90;99.90;;;;;;5099798;28;20035;-89
2023/02/06 03:17:39;;;;;;;33.60;4.07;;;4.90;99.90;;;;;;5100410;28;20440;-89
2023/02/06 03:20:08;;;;;;;25.60;4.20;;;4.90;99.90;;;;;;5099398;28;20262;-89
2023/02/06 03:22:35;;;;;;;24.80;4.18;;;4.90;99.90;;;;;;5101523;28;20472;-93
2023/02/06 03:25:06;;;;;;;21.33;3.60;;;4.90;99.90;;;;;;5102777;28;20095;-93
2023/02/06 03:27:32;;;;;;;27.92;4.32;;;4.90;99.90;;;;;;5102901;28;20111;-93
2023/02/06 03:30:01;;;;;;;22.85;3.00;;;4.90;99.90;;;;;;5102236;28;20020;-93
2023/02/06 03:32:33;;;;;;;28.40;4.45;;;4.90;99.90;;;;;;5120333;28;20028;-93
2023/02/06 03:35:00;;;;;;;26.98;4.45;;;4.90;99.90;;;;;;5101884;28;20383;-93
2023/02/06 03:37:27;;;;;;;26.85;3.03;;;4.90;99.90;;;;;;5099220;28;20113;-85
2023/02/06 03:39:56;;;;;;;26.73;5.10;;;4.90;99.90;;;;;;5081193;28;20468;-84
2023/02/06 03:42:23;;;;;;;19.20;3.33;;;4.90;99.90;;;;;;5097654;28;20500;-84
2023/02/06 03:45:02;;;;;;;25.33;3.50;;;4.90;99.90;;;;;;5097951;28;20016;-83
2023/02/06 03:47:30;;;;;;;21.15;4.15;;;4.90;99.90;;;;;;5098344;28;20030;-89
2023/02/06 03:49:58;;;;;;;28.15;4.72;;;4.90;99.90;;;;;;5098968;28;20024;-89
2023/02/06 03:52:28;;;;;;;23.42;3.28;;;4.90;99.90;;;;;;5116734;28;20081;-90
2023/02/06 03:55:01;;;;;;;24.98;4.63;;;4.90;99.90;;;;;;5098991;28;20027;-85
2023/02/06 03:57:30;;;;;;;19.45;3.83;;;4.90;99.90;;;;;;5097622;28;20106;-86
2023/02/06 03:59:55;;;;;;;32.25;4.22;;;4.80;99.90;;;;;;5097674;28;20030;-85
2023/02/06 04:02:23;;;;;;;20.40;3.85;;;4.80;99.90;;;;;;5097680;28;20392;-85
2023/02/06 04:04:48;;;;;;;28.38;4.85;;;4.80;99.90;;;;;;5097684;28;20023;-85
2023/02/06 04:07:24;;;;;;;18.23;3.40;;;4.80;99.90;;;;;;5098218;28;20028;-86
2023/02/06 04:09:51;;;;;;;20.55;3.75;;;4.70;99.90;;;;;;5097645;28;20012;-85
2023/02/06 04:12:17;;;;;;;21.42;3.92;;;4.70;99.90;;;;;;5080662;28;20023;-84
2023/02/06 04:14:43;;;;;;;21.20;3.45;;;4.70;99.90;;;;;;5097363;28;20024;-84
2023/02/06 04:17:09;;;;;;;23.33;3.50;;;4.70;99.90;;;;;;5097220;28;20028;-84
2023/02/06 04:19:35;;;;;;;21.20;3.25;;;4.60;99.90;;;;;;5115473;28;20016;-84
2023/02/06 04:22:01;;;;;;;29.38;4.38;;;4.70;99.90;;;;;;5097063;28;20106;-84
2023/02/06 04:24:27;;;;;;;20.85;3.45;;;4.60;99.90;;;;;;5097218;28;20188;-84
2023/02/06 04:26:53;;;;;;;27.20;3.30;;;4.60;99.90;;;;;;5097087;28;20027;-84
2023/02/06 04:29:18;;;;;;;31.17;4.95;;;4.60;99.90;;;;;;5115332;28;20476;-84
2023/02/06 04:31:44;;;;;;;28.85;5.03;;;4.50;99.90;;;;;;5115141;28;20114;-84
2023/02/06 04:34:10;;;;;;;23.55;3.97;;;4.50;99.90;;;;;;5096790;28;20024;-84
2023/02/06 04:36:36;;;;;;;26.25;4.13;;;4.50;99.90;;;;;;5079848;28;20058;-85
2023/02/06 04:39:05;;;;;;;20.95;3.42;;;4.40;99.90;;;;;;5096805;28;20054;-84
2023/02/06 04:41:31;;;;;;;23.90;3.60;;;4.40;99.90;;;;;;5115017;28;20036;-84
2023/02/06 04:43:57;;;;;;;25.92;3.88;;;4.40;99.90;;;;;;5115108;28;20028;-84
2023/02/06 04:46:23;;;;;;;24.17;4.88;;;4.40;99.90;;;;;;5083138;28;20091;-84
2023/02/06 04:48:48;;;;;;;29.77;6.47;;;4.40;99.90;;;;;;5105109;28;20051;-85
2023/02/06 04:51:14;;;;;;;25.73;3.58;;;4.40;99.90;;;;;;5117446;28;20035;-84
2023/02/06 04:53:39;;;;;;;27.67;5.60;;;4.40;99.90;;;;;;5097571;28;20027;-84
2023/02/06 04:56:07;;;;;;;24.23;3.25;;;4.30;99.90;;;;;;5096870;28;20042;-84
2023/02/06 04:58:33;;;;;;;24.67;5.22;;;4.30;99.90;;;;;;5114838;28;20385;-84
2023/02/06 05:00:59;;;;;;;21.95;3.45;;;4.30;99.90;;;;;;5096734;28;20035;-93
2023/02/06 05:03:24;;;;;;;21.67;3.67;;;4.30;99.90;;;;;;5080561;28;20507;-93
2023/02/06 05:05:51;;;;;;;21.15;3.40;;;4.30;99.90;;;;;;5063994;28;20028;-93
2023/02/06 05:08:18;;;;;;;27.63;4.40;;;4.30;99.90;;;;;;5080113;28;20023;-93
2023/02/06 05:10:44;;;;;;;25.35;3.50;;;4.30;99.90;;;;;;5097159;28;20030;-92
2023/02/06 05:13:10;;;;;;;27.38;4.30;;;4.30;99.90;;;;;;5097410;28;20024;-93
2023/02/06 05:15:36;;;;;;;34.67;4.18;;;4.30;99.90;;;;;;5080449;28;20357;-93
2023/02/06 05:18:02;;;;;;;22.73;4.03;;;4.20;99.90;;;;;;5080213;28;20039;-84
2023/02/06 05:20:28;;;;;;;19.08;3.33;;;4.20;99.90;;;;;;5079867;28;20036;-84
2023/02/06 05:22:54;;;;;;;21.50;3.70;;;4.20;99.90;;;;;;5114375;28;20456;-84
2023/02/06 05:25:19;;;;;;;22.23;3.13;;;4.20;99.90;;;;;;5079528;28;20069;-84
2023/02/06 05:27:45;;;;;;;21.63;3.65;;;4.20;99.90;;;;;;5096373;28;20046;-84
2023/02/06 05:30:11;;;;;;;23.83;4.93;;;4.20;99.90;;;;;;5096575;28;20032;-84
2023/02/06 05:32:37;;;;;;;22.92;4.30;;;4.20;99.90;;;;;;5080259;28;20027;-84
2023/02/06 05:35:03;;;;;;;20.35;3.75;;;4.20;99.90;;;;;;5095754;28;20068;-85
2023/02/06 05:37:29;;;;;;;17.08;3.13;;;4.10;99.90;;;;;;5096029;28;20051;-85
2023/02/06 05:39:55;;;;;;;17.10;3.00;;;4.10;99.90;;;;;;5079227;28;20063;-85
2023/02/06 05:42:20;;;;;;;29.60;4.43;;;4.10;99.90;;;;;;5078852;28;20134;-86
2023/02/06 05:44:46;;;;;;;25.65;3.47;;;4.10;99.90;;;;;;5062769;28;20122;-86
2023/02/06 05:47:11;;;;;;;16.98;3.00;;;4.10;99.90;;;;;;5079177;28;20076;-85
2023/02/06 05:49:37;;;;;;;17.48;3.03;;;4.10;99.90;;;;;;5079118;28;20434;-85
2023/02/06 05:52:03;;;;;;;18.95;3.13;;;4.10;99.90;;;;;;5062879;28;20027;-90
2023/02/06 05:54:28;;;;;;;24.65;3.92;;;4.10;99.90;;;;;;5079783;28;20054;-89
2023/02/06 05:56:56;;;;;;;24.65;3.95;;;4.00;99.90;;;;;;5096753;28;20085;-89
2023/02/06 05:59:23;;;;;;;26.17;3.20;;;4.00;99.90;;;;;;5096660;28;20015;-88
2023/02/06 06:01:48;;;;;;;24.85;4.32;;;4.00;99.90;;;;;;5106399;28;20038;-89
2023/02/06 06:04:14;;;;;;;21.13;3.47;;;4.00;99.90;;;;;;5077006;28;20111;-84
2023/02/06 06:06:40;;;;;;;20.48;3.80;;;4.00;99.90;;;;;;5057799;28;20119;-85
2023/02/06 06:09:06;;;;;;;14.65;2.90;;;4.00;99.90;;;;;;5060220;28;20029;-89
2023/02/06 06:11:32;;;;;;;16.52;3.85;;;4.00;99.90;;;;;;5042969;28;20028;-89
2023/02/06 06:13:58;;;;;;;16.95;3.30;;;4.00;99.90;;;;;;5044050;28;20016;-89
2023/02/06 06:16:24;;;;;;;28.73;4.50;;;4.00;99.90;;;;;;5076467;28;20081;-89
2023/02/06 06:18:49;;;;;;;21.42;3.45;;;4.00;99.90;;;;;;5060614;28;20024;-88
2023/02/06 06:21:15;;;;;;;19.55;3.40;;;4.00;99.90;;;;;;5063120;28;20026;-91
2023/02/06 06:23:41;;;;;;;17.00;4.68;;;4.00;99.90;;;;;;5063361;28;20054;-89
2023/02/06 06:26:08;;;;;;;24.13;3.50;;;4.00;99.90;;;;;;5063401;28;20362;-82
2023/02/06 06:28:36;;;;;;;25.70;4.00;;;3.90;99.90;;;;;;5080059;28;20036;-84
2023/02/06 06:31:04;;;;;;;25.88;3.13;;;4.00;99.90;;;;;;5063047;28;20024;-85
2023/02/06 06:33:29;;;;;;;21.70;3.70;;;3.90;99.90;;;;;;5062778;28;20035;-84
2023/02/06 06:35:55;;;;;;;15.43;3.25;;;3.90;99.90;;;;;;5079419;28;20024;-86
2023/02/06 06:38:21;;;;;;;13.38;3.08;;;3.90;99.90;;;;;;5062324;28;20039;-85
2023/02/06 06:40:46;;;;;;;20.48;3.30;;;3.90;99.90;;;;;;5079374;28;20031;-85
2023/02/06 06:43:12;;;;;;;23.85;4.55;;;3.90;99.90;;;;;;5061632;28;20048;-86
2023/02/06 06:45:38;;;;;;;20.08;3.67;;;3.90;99.90;;;;;;5061842;28;20016;-87
2023/02/06 06:48:03;;;;;;;14.05;3.33;;;3.90;99.90;;;;;;5063315;28;20032;-94
2023/02/06 06:50:29;;;;;;;15.80;3.78;;;3.90;99.90;;;;;;5063376;28;20043;-94
2023/02/06 06:52:55;;;;;;;20.45;3.58;;;4.00;99.90;;;;;;5062919;28;20024;-94
2023/02/06 06:55:20;;;;;;;17.42;3.17;;;3.90;99.90;;;;;;5063155;28;20032;-94
2023/02/06 06:57:46;;;;;;;18.00;3.20;;;3.90;99.90;;;;;;5064412;28;20039;-91
2023/02/06 07:00:13;;;;;;;15.95;3.83;;;3.90;99.90;;;;;;5067158;28;20024;-90
2023/02/06 07:02:39;;;;;;;14.07;3.10;;;3.90;99.90;;;;;;5082888;28;20019;-91
2023/02/06 07:05:05;;;;;;;16.98;3.38;;;4.00;99.90;;;;;;5081257;28;20059;-90
2023/02/06 07:07:31;;;;;;;19.00;3.70;;;4.00;99.90;;;;;;5064521;28;20450;-89
2023/02/06 07:09:58;;;;;;;19.10;3.53;;;4.00;99.90;;;;;;5062664;28;20024;-90
2023/02/06 07:12:24;;;;;;;16.60;3.00;;;4.00;99.90;;;;;;5063040;28;20044;-90
2023/02/06 07:14:50;;;;;;;14.27;3.33;;;4.00;99.90;;;;;;5079522;28;20040;-92
2023/02/06 07:17:16;;;;;;;17.77;3.28;;;4.00;99.90;;;;;;5079486;28;20016;-92
2023/02/06 07:19:46;;;;;;;14.32;2.85;;;4.00;99.90;;;;;;5062748;28;20035;-93
2023/02/06 07:22:13;;;;;;;14.45;3.35;;;4.00;99.90;;;;;;5063194;28;20411;-92
2023/02/06 07:24:38;;;;;;;18.65;3.72;;;4.00;99.90;;;;;;5062904;28;20038;-92
2023/02/06 07:27:04;;;;;;;16.80;3.50;;;4.00;99.90;;;;;;5079013;28;20103;-93
2023/02/06 07:29:30;;;;;;;19.10;3.38;;;4.10;99.90;;;;;;5063012;28;20052;-93
2023/02/06 07:31:56;;;;;;;15.23;3.00;;;4.10;99.90;;;;;;5061245;28;20021;-85
2023/02/06 07:34:22;;;;;;;15.38;2.78;;;4.10;99.90;;;;;;5078071;28;20082;-86
2023/02/06 07:36:47;;;;;;;21.85;3.55;;;4.10;99.90;;;;;;5061416;28;20024;-85
2023/02/06 07:39:13;;;;;;;21.42;3.58;;;4.10;99.90;;;;;;5077981;28;20408;-85
2023/02/06 07:41:39;;;;;;;16.30;2.80;;;4.20;99.90;;;;;;5057419;28;20057;-85
2023/02/06 07:44:05;;;;;;;18.23;3.00;;;4.20;99.90;;;;;;5094177;28;20053;-85
2023/02/06 07:46:32;;;;;;;16.58;3.53;;;4.20;99.90;;;;;;5077079;28;20463;-85
2023/02/06 07:48:58;;;;;;;21.30;3.15;;;4.20;99.90;;;;;;5094762;28;20107;-84
2023/02/06 07:51:23;;;;;;;20.65;3.33;;;4.20;99.90;;;;;;5076732;28;20127;-84
2023/02/06 07:53:49;;;;;;;17.38;3.35;;;4.20;99.90;;;;;;5093669;28;20146;-84
2023/02/06 07:56:17;;;;;;;13.15;3.03;;;4.30;99.90;;;;;;5095129;28;20035;-84
2023/02/06 07:58:43;;;;;;;15.32;2.88;;;4.30;99.90;;;;;;5090621;28;20028;-84
2023/02/06 08:01:09;;;;;;;14.13;2.80;;;4.30;99.90;;;;;;5076637;28;20051;-84
2023/02/06 08:03:36;;;;;;;14.68;3.15;;;4.30;99.90;;;;;;5076529;28;20035;-84
2023/02/06 08:06:10;;;;;;;16.42;3.10;;;4.30;99.90;;;;;;5101202;28;20025;-90
2023/02/06 08:08:36;;;;;;;14.13;2.85;;;4.40;99.90;;;;;;5098318;28;20044;-89
2023/02/06 08:11:07;;;;;;;14.93;3.33;;;4.40;99.90;;;;;;5085967;28;20028;-89
2023/02/06 08:13:33;;;;;;;18.23;3.50;;;4.40;99.90;;;;;;5104591;28;20036;-90
2023/02/06 08:16:03;;;;;;;14.90;2.92;;;4.40;99.90;;;;;;5083082;28;20035;-89
2023/02/06 08:18:28;;;;;;;15.93;2.90;;;4.40;99.90;;;;;;5101318;28;20032;-89
2023/02/06 08:21:03;;;;;;;16.48;3.00;;;4.50;99.90;;;;;;5084624;28;20032;-84
2023/02/06 08:23:29;;;;;;;16.10;3.28;;;4.50;99.90;;;;;;5093629;28;20486;-84
2023/02/06 08:26:25;;;;;;;15.23;3.10;;;4.50;99.90;;;;;;5093602;28;20119;-83
2023/02/06 08:28:51;;;;;;;15.95;3.05;;;4.60;99.90;;;;;;5082237;28;20469;-84
2023/02/06 08:31:22;;;;;;;12.55;2.95;;;4.60;99.90;;;;;;5076731;28;20028;-84
2023/02/06 08:33:48;;;;;;;17.27;3.47;;;4.60;99.90;;;;;;5093412;28;20024;-84
2023/02/06 08:36:14;;;;;;;12.45;3.00;;;4.60;99.90;;;;;;5093430;28;20032;-85
2023/02/06 08:38:40;;;;;;;11.55;3.08;;;4.60;99.90;;;;;;5093115;28;20013;-84
2023/02/06 08:41:16;;;;;;;15.48;3.70;;;4.70;99.90;;;;;;5094873;28;20036;-89
2023/02/06 08:43:41;;;;;;;16.25;3.50;;;4.70;99.90;;;;;;5099893;28;20024;-90
2023/02/06 08:46:07;;;;;;;13.60;3.60;;;4.70;99.90;;;;;;5097568;28;20031;-90
2023/02/06 08:48:33;;;;;;;17.70;3.38;;;4.70;99.90;;;;;;5097537;28;20031;-89
2023/02/06 08:51:06;;;;;;;13.13;2.88;;;4.70;99.90;;;;;;5080680;28;20066;-89
2023/02/06 08:53:32;;;;;;;15.85;3.30;;;4.80;99.90;;;;;;5100997;28;20058;-89
2023/02/06 08:56:03;;;;;;;15.75;3.20;;;4.80;99.90;;;;;;5097521;28;20043;-84
2023/02/06 08:58:29;;;;;;;19.42;3.38;;;4.80;99.90;;;;;;5127171;28;20437;-83
2023/02/06 09:00:55;;;;;;;15.80;3.45;;;4.90;99.90;;;;;;5095589;28;20029;-84
2023/02/06 09:03:21;;;;;;;16.98;3.22;;;4.90;99.90;;;;;;5115489;28;20106;-84
2023/02/06 09:05:48;;;;;;;16.30;3.47;;;4.90;99.90;;;;;;5096167;28;20028;-84
2023/02/06 09:08:15;;;;;;;19.48;3.45;;;5.00;99.90;;;;;;5128793;28;20028;-85
2023/02/06 09:10:40;;;;;;;23.65;3.25;;;5.00;99.90;;;;;;5087347;28;20028;-85
2023/02/06 09:13:06;;;;;;;20.20;3.53;;;5.00;99.90;;;;;;5115954;28;20043;-89
2023/02/06 09:15:32;;;;;;;22.38;3.55;;;5.10;99.90;;;;;;5080425;28;20032;-90
2023/02/06 09:17:58;;;;;;;19.13;3.25;;;5.10;99.90;;;;;;5096735;28;20110;-90
2023/02/06 09:20:25;;;;;;;19.55;4.07;;;5.10;99.90;;;;;;5096426;28;20032;-90
2023/02/06 09:22:52;;;;;;;21.67;3.20;;;5.20;99.90;;;;;;5080248;28;20480;-90
2023/02/06 09:25:18;;;;;;;19.75;3.70;;;5.20;99.90;;;;;;5096332;28;20437;-89
2023/02/06 09:27:45;;;;;;;21.08;4.53;;;5.20;99.90;;;;;;5096619;28;20384;-84
2023/02/06 09:30:12;;;;;;;25.98;5.53;;;5.30;99.90;;;;;;5095664;28;20030;-84
2023/02/06 09:32:39;;;;;;;22.95;3.53;;;5.40;99.90;;;;;;5078604;28;20434;-84
2023/02/06 09:35:05;;;;;;;22.38;3.00;;;5.40;99.90;;;;;;5096605;28;20106;-84
2023/02/06 09:37:31;;;;;;;21.05;3.53;;;5.40;99.90;;;;;;5095814;28;20111;-84
2023/02/06 09:39:56;;;;;;;20.58;3.90;;;5.40;99.90;;;;;;5078531;28;20055;-84
2023/02/06 09:42:36;;;;;;;22.58;3.45;;;5.50;99.90;;;;;;5095381;28;20056;-84
2023/02/06 09:45:12;;;;;;;21.83;4.10;;;5.60;99.90;;;;;;5093010;28;20476;-86
2023/02/06 09:47:44;;;;;;;28.65;3.53;;;5.60;99.90;;;;;;5096198;28;20080;-86
2023/02/06 09:50:33;;;;;;;13.50;3.22;;;5.60;99.90;;;;;;5098503;28;20090;-85
2023/02/06 09:53:17;;;;;;;20.85;4.00;;;5.70;99.90;;;;;;5086255;28;20058;-92
2023/02/06 09:56:00;;;;;;;18.08;5.72;;;5.70;99.90;;;;;;5096887;28;20055;-93
2023/02/06 09:58:35;;;;;;;25.88;3.97;;;5.80;99.90;;;;;;5101755;28;20024;-92
2023/02/06 10:01:18;;;;;;;26.40;4.82;;;5.80;99.90;;;;;;5076901;28;20556;-88
2023/02/06 10:04:13;;;;;;;24.00;3.65;;;5.90;99.90;;;;;;5096311;28;20031;-89
2023/02/06 10:06:47;;;;;;;25.50;4.03;;;6.00;99.90;;;;;;5092974;28;20031;-90
2023/02/06 10:09:19;;;;;;;30.98;5.25;;;6.00;99.90;;;;;;5095777;28;20019;-90
2023/02/06 10:11:56;;;;;;;31.80;5.38;;;6.10;99.90;;;;;;5096327;28;20055;-90
2023/02/06 10:14:47;;;;;;;29.98;4.72;;;6.10;99.90;;;;;;5096051;28;20083;-90
2023/02/06 10:17:27;;;;;;;28.40;3.60;;;6.20;99.90;;;;;;5093779;28;20101;-86
2023/02/06 10:20:25;;;;;;;18.88;3.42;;;6.30;99.90;;;;;;5095199;28;20089;-84
2023/02/06 10:22:54;;;;;;;29.45;6.13;;;6.40;99.90;;;;;;5112578;28;20036;-84
2023/02/06 10:25:22;;;;;;;22.42;3.10;;;6.40;99.90;;;;;;5097207;28;20388;-84
2023/02/06 10:27:55;;;;;;;25.17;3.60;;;6.50;99.90;;;;;;5095111;28;20107;-84
2023/02/06 10:30:40;;;;;;;28.98;4.18;;;6.50;99.90;;;;;;5094991;28;20032;-84
2023/02/06 10:33:14;;;;;;;27.33;4.38;;;6.60;99.90;;;;;;5113344;28;20030;-85
2023/02/06 10:35:46;;;;;;;29.05;4.43;;;6.70;99.90;;;;;;5091639;28;20077;-88
2023/02/06 10:38:18;;;;;;;21.60;4.13;;;6.70;99.90;;;;;;5096362;28;20024;-90
2023/02/06 10:41:07;;;;;;;25.63;3.72;;;6.80;99.90;;;;;;5092614;28;20035;-90
2023/02/06 10:43:51;;;;;;;27.42;4.35;;;6.90;99.90;;;;;;5094335;28;20442;-90
2023/02/06 10:46:35;;;;;;;27.35;4.45;;;7.00;99.90;;;;;;5091684;28;20019;-90
2023/02/06 10:49:13;;;;;;;24.95;3.83;;;7.00;99.90;;;;;;5093122;28;20110;-90
2023/02/06 10:51:42;;;;;;;23.35;3.72;;;7.10;99.90;;;;;;5095387;28;20027;-84
2023/02/06 10:54:24;;;;;;;28.85;3.85;;;7.20;99.90;;;;;;5112679;28;20054;-84
2023/02/06 10:56:52;;;;;;;22.98;3.63;;;7.20;99.90;;;;;;5090614;28;20019;-84
2023/02/06 10:59:38;;;;;;;24.80;3.72;;;7.30;99.90;;;;;;5094504;28;20051;-85
2023/02/06 11:02:06;;;;;;;20.42;2.95;;;7.30;99.90;;;;;;5094768;28;20460;-84
2023/02/06 11:04:41;;;;;;;21.73;3.58;;;7.40;99.90;;;;;;5095207;28;20107;-84
2023/02/06 11:07:19;;;;;;;22.70;3.25;;;7.40;99.90;;;;;;5097140;28;20077;-84
2023/02/06 11:09:45;;;;;;;20.98;3.33;;;7.50;99.90;;;;;;5099315;28;20023;-90
2023/02/06 11:12:51;;;;;;;16.52;3.10;;;7.50;99.90;;;;;;5082511;28;20106;-89
2023/02/06 11:16:21;;;;;;;23.92;3.75;;;7.60;99.90;;;;;;5099586;28;20031;-90
2023/02/06 11:18:49;;;;;;;23.58;3.50;;;7.70;99.90;;;;;;5052202;28;20128;-94
2023/02/06 11:21:40;;;;;;;17.40;2.97;;;7.80;99.90;;;;;;5038898;28;20044;-93
2023/02/06 11:24:10;;;;;;;;;;;7.80;99.90;;;;;;5090311;28;20036;-94
2023/02/06 11:26:41;;;;;;;18.45;3.15;;;7.80;99.90;;;;;;5094585;28;19904;-84
2023/02/06 11:29:23;;;;;;;18.83;2.80;;;7.90;99.90;;;;;;5112155;28;20030;-85
2023/02/06 11:31:57;;;;;;;22.60;3.00;;;8.00;99.90;;;;;;5097722;28;20048;-85
2023/02/06 11:34:37;;;;;;;25.02;2.85;;;8.00;99.90;;;;;;5116216;28;20024;-86
2023/02/06 11:37:05;;;;;;;15.18;2.58;;;8.10;99.90;;;;;;5098167;28;20027;-85
2023/02/06 11:39:37;;;;;;;15.35;2.75;;;8.10;99.90;;;;;;5115574;28;20016;-85
2023/02/06 11:42:23;;;;;;;19.90;2.63;;;8.20;99.90;;;;;;5117183;28;20459;-86
2023/02/06 11:44:50;;;;;;;20.10;3.70;;;8.20;99.90;;;;;;5100499;28;20019;-86
2023/02/06 11:47:31;;;;;;;19.60;3.10;;;8.30;99.90;;;;;;5120679;28;20012;-86
2023/02/06 11:50:12;;;;;;;16.73;2.65;;;8.30;99.90;;;;;;5116523;27;20028;-86
2023/02/06 11:52:41;;;;;;;18.73;3.58;;;8.40;99.90;;;;;;5099360;28;20031;-86
2023/02/06 11:55:29;;;;;;;15.80;2.83;;;8.50;99.90;;;;;;5101504;28;20019;-86
2023/02/06 11:58:03;;;;;;;20.05;3.40;;;8.60;99.90;;;;;;5096544;28;20020;-85
2023/02/06 12:00:29;;;;;;;15.40;2.70;;;8.60;99.90;;;;;;5097063;28;20031;-84
2023/02/06 12:02:55;;;;;;;19.33;2.65;;;8.70;99.90;;;;;;5118168;28;20057;-85
2023/02/06 12:05:26;;;;;;;21.77;2.97;;;8.70;99.90;;;;;;5101850;28;20476;-84
2023/02/06 12:08:04;;;;;;;20.05;4.47;;;8.70;99.90;;;;;;5118407;28;20421;-85
2023/02/06 12:10:33;;;;;;;18.52;3.05;;;8.70;99.90;;;;;;5101295;28;20058;-85
2023/02/06 12:13:06;;;;;;;19.85;4.22;;;8.70;99.90;;;;;;5097198;28;20023;-84
2023/02/06 12:15:41;;;;;;;14.68;3.40;;;8.80;99.90;;;;;;5098395;28;20115;-93
2023/02/06 12:18:14;;;;;;;17.25;4.18;;;8.80;99.90;;;;;;5098572;28;20019;-94
2023/02/06 12:20:54;;;;;;;16.60;2.78;;;8.80;99.90;;;;;;5098516;28;20027;-93
2023/02/06 12:23:24;;;;;;;20.98;3.08;;;8.80;99.90;;;;;;5100682;28;20020;-85
2023/02/06 12:25:56;;;;;;;17.55;3.38;;;8.80;99.90;;;;;;5099992;28;20051;-90
2023/02/06 12:28:51;;;;;;;18.55;4.10;;;8.90;99.90;;;;;;5097417;28;20024;-89
2023/02/06 12:31:54;;;;;;;16.70;2.85;;;8.90;99.90;;;;;;5066619;28;20070;-84
2023/02/06 12:34:24;;;;;;;17.90;2.72;;;9.00;99.90;;;;;;5018365;28;20480;-84
2023/02/06 12:37:24;;;;;;;20.17;3.25;;;9.00;99.90;;;;;;5114919;28;20053;-84
2023/02/06 12:39:51;;;;;;;20.48;2.92;;;9.10;99.90;;;;;;5096971;28;20085;-84
2023/02/06 12:42:46;;;;;;;19.75;3.10;;;9.10;99.90;;;;;;5075495;28;20096;-84
2023/02/06 12:45:26;;;;;;;14.38;2.40;;;9.20;99.90;;;;;;5096462;28;20036;-84
2023/02/06 12:47:58;;;;;;;12.27;3.13;;;9.20;99.90;;;;;;5092674;28;20107;-84
2023/02/06 12:50:38;;;;;;;14.73;2.42;;;9.20;99.90;;;;;;5093070;28;20263;-84
2023/02/06 12:53:14;;;;;;;20.88;2.75;;;9.30;99.90;;;;;;5105185;28;20023;-90
2023/02/06 12:55:53;;;;;;;19.58;2.30;;;9.30;99.90;;;;;;5104162;28;20030;-89
2023/02/06 12:58:42;;;;;;;17.15;2.63;;;9.40;99.90;;;;;;5124066;28;20040;-89
2023/02/06 13:01:31;;;;;;;15.57;2.83;;;9.40;99.90;;;;;;5092230;28;20039;-90
2023/02/06 13:04:00;;;;;;;14.15;3.08;;;9.50;99.90;;;;;;5110883;28;20032;-90
2023/02/06 13:06:49;;;;;;;20.08;2.72;;;9.50;99.90;;;;;;5115009;28;20468;-86